Terminal Aerodrome Forecast
Issued by NWS

Home | Current Version | Previous Version | Text Only | Print | Product List | Glossary On
Versions: 1 2 3 4 5 6 7 8 9 10 11 12 13 14 15 16 17 18 19
000
FTUS42 KTBW 172300
TAFRSW
TAF
KRSW 172337Z 1800/1824 07010KT P6SM SCT015 BKN100
      TEMPO 1800/1802 BKN015
     FM180800 08009KT P6SM BKN025
     FM181400 13010KT P6SM VCSH SCT015 BKN025
     FM181700 16014G22KT P6SM VCSH SCT015 BKN030
     FM182000 20014G22KT P6SM VCSH SCT015 BKN030=

USA.gov is the U.S. government's official web portal to all federal, state and local government web resources and services.